sensor_id;sensor_type;location;lat;lon;timestamp;P1;durP1;ratioP1;P2;durP2;ratioP2
65071;SDS011;51663;52.310;17.016;2023-02-01T00:02:54;5.10;;;1.40;;
65071;SDS011;51663;52.310;17.016;2023-02-01T00:05:57;7.90;;;1.67;;
65071;SDS011;51663;52.310;17.016;2023-02-01T00:08:59;6.57;;;2.10;;
65071;SDS011;51663;52.310;17.016;2023-02-01T00:12:02;7.43;;;1.90;;
65071;SDS011;51663;52.310;17.016;2023-02-01T00:15:05;7.70;;;2.13;;
65071;SDS011;51663;52.310;17.016;2023-02-01T00:18:07;9.57;;;1.90;;
65071;SDS011;51663;52.310;17.016;2023-02-01T00:21:10;11.73;;;2.43;;
65071;SDS011;51663;52.310;17.016;2023-02-01T00:24:13;9.57;;;2.27;;
65071;SDS011;51663;52.310;17.016;2023-02-01T00:27:15;7.13;;;2.27;;
65071;SDS011;51663;52.310;17.016;2023-02-01T00:30:21;9.13;;;2.67;;
65071;SDS011;51663;52.310;17.016;2023-02-01T00:33:24;9.87;;;2.53;;
65071;SDS011;51663;52.310;17.016;2023-02-01T00:36:26;10.67;;;2.33;;
65071;SDS011;51663;52.310;17.016;2023-02-01T00:39:29;6.73;;;2.07;;
65071;SDS011;51663;52.310;17.016;2023-02-01T00:42:31;6.60;;;2.00;;
65071;SDS011;51663;52.310;17.016;2023-02-01T00:45:33;6.63;;;2.20;;
65071;SDS011;51663;52.310;17.016;2023-02-01T00:48:37;9.70;;;2.10;;
65071;SDS011;51663;52.310;17.016;2023-02-01T00:51:39;7.50;;;1.67;;
65071;SDS011;51663;52.310;17.016;2023-02-01T00:54:41;10.13;;;2.30;;
65071;SDS011;51663;52.310;17.016;2023-02-01T00:57:43;9.37;;;2.43;;
65071;SDS011;51663;52.310;17.016;2023-02-01T01:00:46;9.67;;;2.90;;
65071;SDS011;51663;52.310;17.016;2023-02-01T01:03:49;8.97;;;1.67;;
65071;SDS011;51663;52.310;17.016;2023-02-01T01:06:57;8.10;;;2.03;;
65071;SDS011;51663;52.310;17.016;2023-02-01T01:09:59;8.30;;;2.30;;
65071;SDS011;51663;52.310;17.016;2023-02-01T01:13:02;11.17;;;2.47;;
65071;SDS011;51663;52.310;17.016;2023-02-01T01:16:04;11.67;;;2.37;;
65071;SDS011;51663;52.310;17.016;2023-02-01T01:19:08;9.03;;;2.40;;
65071;SDS011;51663;52.310;17.016;2023-02-01T01:22:10;8.27;;;2.43;;
65071;SDS011;51663;52.310;17.016;2023-02-01T01:25:12;7.00;;;2.33;;
65071;SDS011;51663;52.310;17.016;2023-02-01T01:28:15;7.37;;;2.13;;
65071;SDS011;51663;52.310;17.016;2023-02-01T01:31:18;10.90;;;2.20;;
65071;SDS011;51663;52.310;17.016;2023-02-01T01:34:22;6.57;;;2.13;;
65071;SDS011;51663;52.310;17.016;2023-02-01T01:37:24;9.20;;;2.67;;
65071;SDS011;51663;52.310;17.016;2023-02-01T01:40:27;7.83;;;1.77;;
65071;SDS011;51663;52.310;17.016;2023-02-01T01:46:56;8.67;;;1.87;;
65071;SDS011;51663;52.310;17.016;2023-02-01T01:49:58;8.53;;;1.77;;
65071;SDS011;51663;52.310;17.016;2023-02-01T01:53:02;7.27;;;1.77;;
65071;SDS011;51663;52.310;17.016;2023-02-01T01:56:07;9.63;;;1.97;;
65071;SDS011;51663;52.310;17.016;2023-02-01T01:59:09;3.37;;;1.50;;
65071;SDS011;51663;52.310;17.016;2023-02-01T02:02:12;6.37;;;1.70;;
65071;SDS011;51663;52.310;17.016;2023-02-01T02:05:14;5.10;;;1.43;;
65071;SDS011;51663;52.310;17.016;2023-02-01T02:08:20;7.50;;;2.17;;
65071;SDS011;51663;52.310;17.016;2023-02-01T02:11:22;6.20;;;1.77;;
65071;SDS011;51663;52.310;17.016;2023-02-01T02:14:25;6.60;;;2.40;;
65071;SDS011;51663;52.310;17.016;2023-02-01T02:20:50;9.37;;;2.30;;
65071;SDS011;51663;52.310;17.016;2023-02-01T02:27:22;9.13;;;1.87;;
65071;SDS011;51663;52.310;17.016;2023-02-01T02:34:38;11.23;;;2.40;;
65071;SDS011;51663;52.310;17.016;2023-02-01T02:43:51;6.40;;;1.80;;
65071;SDS011;51663;52.310;17.016;2023-02-01T02:47:23;9.03;;;2.37;;
65071;SDS011;51663;52.310;17.016;2023-02-01T02:50:36;7.73;;;1.93;;
65071;SDS011;51663;52.310;17.016;2023-02-01T02:54:25;8.03;;;1.93;;
65071;SDS011;51663;52.310;17.016;2023-02-01T02:57:48;8.77;;;1.73;;
65071;SDS011;51663;52.310;17.016;2023-02-01T03:01:10;6.70;;;2.00;;
65071;SDS011;51663;52.310;17.016;2023-02-01T03:04:31;7.23;;;2.13;;
65071;SDS011;51663;52.310;17.016;2023-02-01T03:11:07;10.67;;;2.37;;
65071;SDS011;51663;52.310;17.016;2023-02-01T03:14:12;11.77;;;2.57;;
65071;SDS011;51663;52.310;17.016;2023-02-01T03:17:17;8.67;;;2.50;;
65071;SDS011;51663;52.310;17.016;2023-02-01T03:20:27;5.83;;;2.33;;
65071;SDS011;51663;52.310;17.016;2023-02-01T03:23:32;6.50;;;1.80;;
65071;SDS011;51663;52.310;17.016;2023-02-01T03:26:37;9.97;;;2.60;;
65071;SDS011;51663;52.310;17.016;2023-02-01T03:32:58;10.33;;;2.17;;
65071;SDS011;51663;52.310;17.016;2023-02-01T03:39:11;8.07;;;2.70;;
65071;SDS011;51663;52.310;17.016;2023-02-01T03:45:43;5.40;;;1.70;;
65071;SDS011;51663;52.310;17.016;2023-02-01T03:48:47;8.20;;;2.37;;
65071;SDS011;51663;52.310;17.016;2023-02-01T03:51:51;15.97;;;3.00;;
65071;SDS011;51663;52.310;17.016;2023-02-01T03:54:55;11.53;;;2.43;;
65071;SDS011;51663;52.310;17.016;2023-02-01T04:01:14;9.70;;;2.50;;
65071;SDS011;51663;52.310;17.016;2023-02-01T04:04:17;9.37;;;2.60;;
65071;SDS011;51663;52.310;17.016;2023-02-01T04:07:22;8.07;;;2.40;;
65071;SDS011;51663;52.310;17.016;2023-02-01T04:10:24;9.50;;;2.63;;
65071;SDS011;51663;52.310;17.016;2023-02-01T04:13:26;7.27;;;2.27;;
65071;SDS011;51663;52.310;17.016;2023-02-01T04:16:29;10.73;;;2.50;;
65071;SDS011;51663;52.310;17.016;2023-02-01T04:19:35;13.17;;;2.60;;
65071;SDS011;51663;52.310;17.016;2023-02-01T04:22:37;12.53;;;3.00;;
65071;SDS011;51663;52.310;17.016;2023-02-01T04:25:39;13.80;;;3.00;;
65071;SDS011;51663;52.310;17.016;2023-02-01T04:28:41;12.53;;;3.07;;
65071;SDS011;51663;52.310;17.016;2023-02-01T04:31:43;8.77;;;2.10;;
65071;SDS011;51663;52.310;17.016;2023-02-01T04:34:46;9.17;;;2.40;;
65071;SDS011;51663;52.310;17.016;2023-02-01T04:37:48;5.73;;;2.20;;
65071;SDS011;51663;52.310;17.016;2023-02-01T04:40:50;7.83;;;2.47;;
65071;SDS011;51663;52.310;17.016;2023-02-01T04:43:52;11.90;;;2.80;;
65071;SDS011;51663;52.310;17.016;2023-02-01T04:46:54;9.80;;;2.37;;
65071;SDS011;51663;52.310;17.016;2023-02-01T04:49:56;10.23;;;2.60;;
65071;SDS011;51663;52.310;17.016;2023-02-01T04:52:59;11.70;;;2.60;;
65071;SDS011;51663;52.310;17.016;2023-02-01T04:56:01;15.50;;;3.30;;
65071;SDS011;51663;52.310;17.016;2023-02-01T04:59:04;8.33;;;2.40;;
65071;SDS011;51663;52.310;17.016;2023-02-01T05:02:06;11.70;;;2.90;;
65071;SDS011;51663;52.310;17.016;2023-02-01T05:05:08;11.53;;;2.57;;
65071;SDS011;51663;52.310;17.016;2023-02-01T05:08:10;7.27;;;2.40;;
65071;SDS011;51663;52.310;17.016;2023-02-01T05:11:13;12.07;;;2.50;;
65071;SDS011;51663;52.310;17.016;2023-02-01T05:14:33;11.83;;;2.80;;
65071;SDS011;51663;52.310;17.016;2023-02-01T05:17:35;7.83;;;2.50;;
65071;SDS011;51663;52.310;17.016;2023-02-01T05:20:37;9.47;;;2.50;;
65071;SDS011;51663;52.310;17.016;2023-02-01T05:23:40;11.90;;;2.60;;
65071;SDS011;51663;52.310;17.016;2023-02-01T05:27:05;9.33;;;2.47;;
65071;SDS011;51663;52.310;17.016;2023-02-01T05:30:08;9.27;;;2.77;;
65071;SDS011;51663;52.310;17.016;2023-02-01T05:33:10;11.63;;;2.27;;
65071;SDS011;51663;52.310;17.016;2023-02-01T05:36:13;13.43;;;2.70;;
65071;SDS011;51663;52.310;17.016;2023-02-01T05:39:15;9.50;;;2.57;;
65071;SDS011;51663;52.310;17.016;2023-02-01T05:42:17;9.17;;;3.00;;
65071;SDS011;51663;52.310;17.016;2023-02-01T05:45:19;11.77;;;3.10;;
65071;SDS011;51663;52.310;17.016;2023-02-01T05:48:21;10.50;;;3.10;;
65071;SDS011;51663;52.310;17.016;2023-02-01T05:51:23;9.43;;;2.70;;
65071;SDS011;51663;52.310;17.016;2023-02-01T05:54:26;7.37;;;2.40;;
65071;SDS011;51663;52.310;17.016;2023-02-01T05:57:28;9.47;;;3.07;;
65071;SDS011;51663;52.310;17.016;2023-02-01T06:00:31;9.37;;;3.00;;
65071;SDS011;51663;52.310;17.016;2023-02-01T06:03:33;8.77;;;3.07;;
65071;SDS011;51663;52.310;17.016;2023-02-01T06:06:36;10.00;;;2.87;;
65071;SDS011;51663;52.310;17.016;2023-02-01T06:09:40;9.37;;;3.03;;
65071;SDS011;51663;52.310;17.016;2023-02-01T06:12:43;10.83;;;3.47;;
65071;SDS011;51663;52.310;17.016;2023-02-01T06:15:49;14.13;;;3.20;;
65071;SDS011;51663;52.310;17.016;2023-02-01T06:18:51;11.40;;;2.90;;
65071;SDS011;51663;52.310;17.016;2023-02-01T06:21:53;10.70;;;2.50;;
65071;SDS011;51663;52.310;17.016;2023-02-01T06:24:56;12.30;;;3.50;;
65071;SDS011;51663;52.310;17.016;2023-02-01T06:28:00;9.70;;;3.17;;
65071;SDS011;51663;52.310;17.016;2023-02-01T06:31:06;10.83;;;3.10;;
65071;SDS011;51663;52.310;17.016;2023-02-01T06:34:08;8.33;;;2.70;;
65071;SDS011;51663;52.310;17.016;2023-02-01T06:37:11;9.80;;;3.27;;
65071;SDS011;51663;52.310;17.016;2023-02-01T06:40:13;9.60;;;2.70;;
65071;SDS011;51663;52.310;17.016;2023-02-01T06:43:16;9.07;;;2.77;;
65071;SDS011;51663;52.310;17.016;2023-02-01T06:46:18;9.40;;;2.90;;
65071;SDS011;51663;52.310;17.016;2023-02-01T06:49:20;12.63;;;3.70;;
65071;SDS011;51663;52.310;17.016;2023-02-01T06:52:23;10.80;;;2.60;;
65071;SDS011;51663;52.310;17.016;2023-02-01T06:55:25;14.63;;;3.67;;
65071;SDS011;51663;52.310;17.016;2023-02-01T06:58:30;11.40;;;3.20;;
65071;SDS011;51663;52.310;17.016;2023-02-01T07:01:34;11.53;;;3.03;;
65071;SDS011;51663;52.310;17.016;2023-02-01T07:04:36;20.47;;;6.20;;
65071;SDS011;51663;52.310;17.016;2023-02-01T07:07:39;9.57;;;2.97;;
65071;SDS011;51663;52.310;17.016;2023-02-01T07:10:41;9.50;;;3.00;;
65071;SDS011;51663;52.310;17.016;2023-02-01T07:13:43;12.43;;;3.17;;
65071;SDS011;51663;52.310;17.016;2023-02-01T07:16:46;15.83;;;3.30;;
65071;SDS011;51663;52.310;17.016;2023-02-01T07:19:48;9.27;;;2.90;;
65071;SDS011;51663;52.310;17.016;2023-02-01T07:22:54;12.47;;;3.43;;
65071;SDS011;51663;52.310;17.016;2023-02-01T07:25:59;13.67;;;3.93;;
65071;SDS011;51663;52.310;17.016;2023-02-01T07:29:03;16.13;;;3.17;;
65071;SDS011;51663;52.310;17.016;2023-02-01T07:32:05;13.13;;;3.60;;
65071;SDS011;51663;52.310;17.016;2023-02-01T07:35:07;11.73;;;3.03;;
65071;SDS011;51663;52.310;17.016;2023-02-01T07:38:10;16.13;;;4.13;;
65071;SDS011;51663;52.310;17.016;2023-02-01T07:41:12;16.33;;;4.33;;
65071;SDS011;51663;52.310;17.016;2023-02-01T07:44:14;11.20;;;3.93;;
65071;SDS011;51663;52.310;17.016;2023-02-01T07:47:17;13.77;;;3.20;;
65071;SDS011;51663;52.310;17.016;2023-02-01T07:50:19;14.10;;;3.87;;
65071;SDS011;51663;52.310;17.016;2023-02-01T07:53:21;12.97;;;3.40;;
65071;SDS011;51663;52.310;17.016;2023-02-01T07:56:24;15.60;;;4.37;;
65071;SDS011;51663;52.310;17.016;2023-02-01T07:59:26;13.13;;;3.17;;
65071;SDS011;51663;52.310;17.016;2023-02-01T08:02:28;15.70;;;4.20;;
65071;SDS011;51663;52.310;17.016;2023-02-01T08:05:31;12.63;;;3.90;;
65071;SDS011;51663;52.310;17.016;2023-02-01T08:08:33;10.30;;;3.90;;
65071;SDS011;51663;52.310;17.016;2023-02-01T08:11:35;15.07;;;3.73;;
65071;SDS011;51663;52.310;17.016;2023-02-01T08:14:39;11.67;;;3.97;;
65071;SDS011;51663;52.310;17.016;2023-02-01T08:17:46;13.67;;;4.80;;
65071;SDS011;51663;52.310;17.016;2023-02-01T08:20:52;17.23;;;4.33;;
65071;SDS011;51663;52.310;17.016;2023-02-01T08:23:54;16.93;;;4.43;;
65071;SDS011;51663;52.310;17.016;2023-02-01T08:26:57;15.83;;;4.20;;
65071;SDS011;51663;52.310;17.016;2023-02-01T08:30:01;14.40;;;3.90;;
65071;SDS011;51663;52.310;17.016;2023-02-01T08:33:07;10.33;;;4.03;;
65071;SDS011;51663;52.310;17.016;2023-02-01T08:36:10;12.57;;;4.20;;
65071;SDS011;51663;52.310;17.016;2023-02-01T08:39:13;14.20;;;4.30;;
65071;SDS011;51663;52.310;17.016;2023-02-01T08:42:15;15.50;;;3.77;;
65071;SDS011;51663;52.310;17.016;2023-02-01T08:45:36;11.37;;;3.50;;
65071;SDS011;51663;52.310;17.016;2023-02-01T08:48:39;11.00;;;3.87;;
65071;SDS011;51663;52.310;17.016;2023-02-01T08:51:41;13.43;;;4.57;;
65071;SDS011;51663;52.310;17.016;2023-02-01T08:54:44;15.30;;;4.20;;
65071;SDS011;51663;52.310;17.016;2023-02-01T08:57:46;11.47;;;3.67;;
65071;SDS011;51663;52.310;17.016;2023-02-01T09:00:49;17.97;;;4.30;;
65071;SDS011;51663;52.310;17.016;2023-02-01T09:03:56;21.30;;;4.93;;
65071;SDS011;51663;52.310;17.016;2023-02-01T09:06:58;54.47;;;10.13;;
65071;SDS011;51663;52.310;17.016;2023-02-01T09:10:00;11.43;;;4.30;;
65071;SDS011;51663;52.310;17.016;2023-02-01T09:13:03;44.10;;;8.27;;
65071;SDS011;51663;52.310;17.016;2023-02-01T09:16:06;17.30;;;4.27;;
65071;SDS011;51663;52.310;17.016;2023-02-01T09:19:08;9.43;;;3.43;;
65071;SDS011;51663;52.310;17.016;2023-02-01T09:22:28;7.60;;;2.87;;
65071;SDS011;51663;52.310;17.016;2023-02-01T09:25:30;8.50;;;2.90;;
65071;SDS011;51663;52.310;17.016;2023-02-01T09:28:32;6.30;;;2.53;;
65071;SDS011;51663;52.310;17.016;2023-02-01T09:31:34;14.57;;;6.60;;
65071;SDS011;51663;52.310;17.016;2023-02-01T09:34:37;8.97;;;3.90;;
65071;SDS011;51663;52.310;17.016;2023-02-01T09:37:40;7.80;;;3.57;;
65071;SDS011;51663;52.310;17.016;2023-02-01T09:40:43;8.53;;;3.33;;
65071;SDS011;51663;52.310;17.016;2023-02-01T09:43:53;10.93;;;3.73;;
65071;SDS011;51663;52.310;17.016;2023-02-01T09:46:58;11.70;;;3.50;;
65071;SDS011;51663;52.310;17.016;2023-02-01T09:50:17;11.53;;;4.20;;
65071;SDS011;51663;52.310;17.016;2023-02-01T09:53:27;10.60;;;4.30;;
65071;SDS011;51663;52.310;17.016;2023-02-01T09:56:35;7.23;;;3.33;;
65071;SDS011;51663;52.310;17.016;2023-02-01T09:59:45;11.60;;;3.97;;
65071;SDS011;51663;52.310;17.016;2023-02-01T10:02:51;10.60;;;3.40;;
65071;SDS011;51663;52.310;17.016;2023-02-01T10:12:34;7.57;;;3.20;;
65071;SDS011;51663;52.310;17.016;2023-02-01T10:15:55;9.27;;;3.70;;
65071;SDS011;51663;52.310;17.016;2023-02-01T10:19:22;9.10;;;3.93;;
65071;SDS011;51663;52.310;17.016;2023-02-01T10:22:42;7.33;;;3.10;;
65071;SDS011;51663;52.310;17.016;2023-02-01T10:29:22;10.17;;;3.33;;
65071;SDS011;51663;52.310;17.016;2023-02-01T10:32:31;9.13;;;3.30;;
65071;SDS011;51663;52.310;17.016;2023-02-01T10:35:36;7.33;;;3.10;;
65071;SDS011;51663;52.310;17.016;2023-02-01T10:38:40;15.00;;;8.57;;
65071;SDS011;51663;52.310;17.016;2023-02-01T10:41:42;8.43;;;4.07;;
65071;SDS011;51663;52.310;17.016;2023-02-01T10:44:44;7.77;;;3.73;;
65071;SDS011;51663;52.310;17.016;2023-02-01T10:47:50;8.03;;;3.70;;
65071;SDS011;51663;52.310;17.016;2023-02-01T10:51:02;9.43;;;3.93;;
65071;SDS011;51663;52.310;17.016;2023-02-01T10:54:22;8.23;;;3.43;;
65071;SDS011;51663;52.310;17.016;2023-02-01T10:57:34;7.90;;;3.20;;
65071;SDS011;51663;52.310;17.016;2023-02-01T11:01:23;7.80;;;3.53;;
65071;SDS011;51663;52.310;17.016;2023-02-01T11:04:14;8.90;;;3.87;;
65071;SDS011;51663;52.310;17.016;2023-02-01T11:07:22;17.03;;;9.33;;
65071;SDS011;51663;52.310;17.016;2023-02-01T11:10:39;8.40;;;3.10;;
65071;SDS011;51663;52.310;17.016;2023-02-01T11:13:42;8.10;;;3.20;;
65071;SDS011;51663;52.310;17.016;2023-02-01T11:16:49;9.47;;;3.80;;
65071;SDS011;51663;52.310;17.016;2023-02-01T11:19:57;7.20;;;2.97;;
65071;SDS011;51663;52.310;17.016;2023-02-01T11:23:01;6.53;;;2.93;;
65071;SDS011;51663;52.310;17.016;2023-02-01T11:26:38;6.10;;;2.97;;
65071;SDS011;51663;52.310;17.016;2023-02-01T11:29:38;6.93;;;3.17;;
65071;SDS011;51663;52.310;17.016;2023-02-01T11:32:47;7.40;;;3.40;;
65071;SDS011;51663;52.310;17.016;2023-02-01T11:35:51;6.23;;;3.40;;
65071;SDS011;51663;52.310;17.016;2023-02-01T11:39:07;7.17;;;3.50;;
65071;SDS011;51663;52.310;17.016;2023-02-01T11:42:19;10.97;;;3.73;;
65071;SDS011;51663;52.310;17.016;2023-02-01T11:45:27;7.93;;;3.17;;
65071;SDS011;51663;52.310;17.016;2023-02-01T11:48:31;12.00;;;5.20;;
65071;SDS011;51663;52.310;17.016;2023-02-01T11:51:37;9.97;;;6.13;;
65071;SDS011;51663;52.310;17.016;2023-02-01T12:11:28;11.83;;;7.10;;
65071;SDS011;51663;52.310;17.016;2023-02-01T12:18:28;8.77;;;5.97;;
65071;SDS011;51663;52.310;17.016;2023-02-01T12:37:51;3.73;;;3.20;;
65071;SDS011;51663;52.310;17.016;2023-02-01T12:47:36;6.63;;;3.73;;
65071;SDS011;51663;52.310;17.016;2023-02-01T12:50:52;7.47;;;5.20;;
65071;SDS011;51663;52.310;17.016;2023-02-01T12:54:10;7.40;;;5.77;;
65071;SDS011;51663;52.310;17.016;2023-02-01T12:57:31;8.10;;;4.20;;
65071;SDS011;51663;52.310;17.016;2023-02-01T13:00:41;4.50;;;3.57;;
65071;SDS011;51663;52.310;17.016;2023-02-01T13:07:25;5.17;;;3.17;;
65071;SDS011;51663;52.310;17.016;2023-02-01T13:10:42;4.23;;;2.90;;
65071;SDS011;51663;52.310;17.016;2023-02-01T13:17:14;7.27;;;3.17;;
65071;SDS011;51663;52.310;17.016;2023-02-01T13:20:33;6.13;;;3.40;;
65071;SDS011;51663;52.310;17.016;2023-02-01T13:23:43;4.60;;;3.50;;
65071;SDS011;51663;52.310;17.016;2023-02-01T13:26:49;6.17;;;3.90;;
65071;SDS011;51663;52.310;17.016;2023-02-01T13:29:59;6.07;;;3.20;;
65071;SDS011;51663;52.310;17.016;2023-02-01T13:43:29;6.33;;;3.03;;
65071;SDS011;51663;52.310;17.016;2023-02-01T13:46:44;6.63;;;3.30;;
65071;SDS011;51663;52.310;17.016;2023-02-01T13:49:48;8.60;;;3.30;;
65071;SDS011;51663;52.310;17.016;2023-02-01T13:52:53;8.40;;;2.93;;
65071;SDS011;51663;52.310;17.016;2023-02-01T13:56:11;6.40;;;2.73;;
65071;SDS011;51663;52.310;17.016;2023-02-01T14:08:46;7.57;;;3.20;;
65071;SDS011;51663;52.310;17.016;2023-02-01T14:19:07;7.00;;;3.20;;
65071;SDS011;51663;52.310;17.016;2023-02-01T14:25:22;5.60;;;2.80;;
65071;SDS011;51663;52.310;17.016;2023-02-01T14:28:25;7.93;;;2.60;;
65071;SDS011;51663;52.310;17.016;2023-02-01T14:31:35;7.63;;;3.70;;
65071;SDS011;51663;52.310;17.016;2023-02-01T14:37:59;8.83;;;3.83;;
65071;SDS011;51663;52.310;17.016;2023-02-01T14:41:16;7.23;;;3.47;;
65071;SDS011;51663;52.310;17.016;2023-02-01T14:44:30;10.53;;;3.90;;
65071;SDS011;51663;52.310;17.016;2023-02-01T14:47:35;7.40;;;3.43;;
65071;SDS011;51663;52.310;17.016;2023-02-01T14:50:42;16.17;;;10.10;;
65071;SDS011;51663;52.310;17.016;2023-02-01T14:53:47;11.17;;;7.77;;
65071;SDS011;51663;52.310;17.016;2023-02-01T14:56:53;7.73;;;4.80;;
65071;SDS011;51663;52.310;17.016;2023-02-01T15:00:00;5.23;;;3.20;;
65071;SDS011;51663;52.310;17.016;2023-02-01T15:06:55;8.47;;;3.87;;
65071;SDS011;51663;52.310;17.016;2023-02-01T15:10:00;5.37;;;3.10;;
65071;SDS011;51663;52.310;17.016;2023-02-01T15:13:04;6.90;;;2.77;;
65071;SDS011;51663;52.310;17.016;2023-02-01T15:16:11;8.90;;;2.60;;
65071;SDS011;51663;52.310;17.016;2023-02-01T15:19:15;10.03;;;4.57;;
65071;SDS011;51663;52.310;17.016;2023-02-01T15:22:18;6.10;;;2.90;;
65071;SDS011;51663;52.310;17.016;2023-02-01T15:25:26;5.33;;;3.10;;
65071;SDS011;51663;52.310;17.016;2023-02-01T15:28:30;6.00;;;2.90;;
65071;SDS011;51663;52.310;17.016;2023-02-01T15:31:36;5.67;;;2.90;;
65071;SDS011;51663;52.310;17.016;2023-02-01T15:34:48;8.97;;;3.00;;
65071;SDS011;51663;52.310;17.016;2023-02-01T15:37:53;9.47;;;3.63;;
65071;SDS011;51663;52.310;17.016;2023-02-01T15:41:30;6.07;;;3.63;;
65071;SDS011;51663;52.310;17.016;2023-02-01T15:44:33;8.30;;;3.67;;
65071;SDS011;51663;52.310;17.016;2023-02-01T15:47:42;8.10;;;3.30;;
65071;SDS011;51663;52.310;17.016;2023-02-01T15:50:49;9.23;;;3.70;;
65071;SDS011;51663;52.310;17.016;2023-02-01T15:56:56;9.43;;;5.07;;
65071;SDS011;51663;52.310;17.016;2023-02-01T16:00:03;10.07;;;4.40;;
65071;SDS011;51663;52.310;17.016;2023-02-01T16:03:33;9.47;;;4.40;;
65071;SDS011;51663;52.310;17.016;2023-02-01T16:06:44;6.00;;;3.80;;
65071;SDS011;51663;52.310;17.016;2023-02-01T16:09:55;6.77;;;3.47;;
65071;SDS011;51663;52.310;17.016;2023-02-01T16:12:59;4.90;;;3.40;;
65071;SDS011;51663;52.310;17.016;2023-02-01T16:16:02;6.80;;;3.50;;
65071;SDS011;51663;52.310;17.016;2023-02-01T16:19:09;6.17;;;3.73;;
65071;SDS011;51663;52.310;17.016;2023-02-01T16:22:11;6.37;;;3.77;;
65071;SDS011;51663;52.310;17.016;2023-02-01T16:25:14;9.53;;;3.70;;
65071;SDS011;51663;52.310;17.016;2023-02-01T16:28:16;9.40;;;3.10;;
65071;SDS011;51663;52.310;17.016;2023-02-01T16:31:18;7.40;;;3.70;;
65071;SDS011;51663;52.310;17.016;2023-02-01T16:34:28;6.30;;;3.50;;
65071;SDS011;51663;52.310;17.016;2023-02-01T16:37:33;6.53;;;2.43;;
65071;SDS011;51663;52.310;17.016;2023-02-01T16:40:37;10.07;;;5.13;;
65071;SDS011;51663;52.310;17.016;2023-02-01T16:43:41;10.63;;;5.60;;
65071;SDS011;51663;52.310;17.016;2023-02-01T16:46:44;6.03;;;3.27;;
65071;SDS011;51663;52.310;17.016;2023-02-01T16:49:48;6.20;;;3.30;;
65071;SDS011;51663;52.310;17.016;2023-02-01T16:52:51;9.13;;;3.30;;
65071;SDS011;51663;52.310;17.016;2023-02-01T16:55:56;7.57;;;3.93;;
65071;SDS011;51663;52.310;17.016;2023-02-01T16:59:02;7.13;;;3.67;;
65071;SDS011;51663;52.310;17.016;2023-02-01T17:02:05;7.30;;;2.97;;
65071;SDS011;51663;52.310;17.016;2023-02-01T17:05:08;9.40;;;3.20;;
65071;SDS011;51663;52.310;17.016;2023-02-01T17:08:12;4.63;;;2.70;;
65071;SDS011;51663;52.310;17.016;2023-02-01T17:11:20;4.33;;;2.40;;
65071;SDS011;51663;52.310;17.016;2023-02-01T17:14:22;5.03;;;3.47;;
65071;SDS011;51663;52.310;17.016;2023-02-01T17:17:38;8.33;;;3.17;;
65071;SDS011;51663;52.310;17.016;2023-02-01T17:20:43;7.53;;;2.90;;
65071;SDS011;51663;52.310;17.016;2023-02-01T17:23:59;5.80;;;3.00;;
65071;SDS011;51663;52.310;17.016;2023-02-01T17:27:06;3.43;;;2.40;;
65071;SDS011;51663;52.310;17.016;2023-02-01T17:30:09;7.47;;;3.20;;
65071;SDS011;51663;52.310;17.016;2023-02-01T17:36:37;5.03;;;3.00;;
65071;SDS011;51663;52.310;17.016;2023-02-01T17:39:40;6.43;;;3.27;;
65071;SDS011;51663;52.310;17.016;2023-02-01T17:42:58;7.23;;;3.53;;
65071;SDS011;51663;52.310;17.016;2023-02-01T17:49:17;5.43;;;3.40;;
65071;SDS011;51663;52.310;17.016;2023-02-01T17:52:19;5.33;;;3.60;;
65071;SDS011;51663;52.310;17.016;2023-02-01T17:55:23;6.73;;;3.80;;
65071;SDS011;51663;52.310;17.016;2023-02-01T17:58:27;6.87;;;3.80;;
65071;SDS011;51663;52.310;17.016;2023-02-01T18:01:33;10.00;;;4.57;;
65071;SDS011;51663;52.310;17.016;2023-02-01T18:04:36;11.10;;;5.57;;
65071;SDS011;51663;52.310;17.016;2023-02-01T18:07:38;9.77;;;5.07;;
65071;SDS011;51663;52.310;17.016;2023-02-01T18:10:41;9.63;;;4.50;;
65071;SDS011;51663;52.310;17.016;2023-02-01T18:13:43;8.30;;;4.00;;
65071;SDS011;51663;52.310;17.016;2023-02-01T18:16:46;6.57;;;4.37;;
65071;SDS011;51663;52.310;17.016;2023-02-01T18:19:48;8.47;;;5.00;;
65071;SDS011;51663;52.310;17.016;2023-02-01T18:22:51;9.20;;;5.20;;
65071;SDS011;51663;52.310;17.016;2023-02-01T18:25:53;12.27;;;6.10;;
65071;SDS011;51663;52.310;17.016;2023-02-01T18:28:58;9.47;;;6.33;;
65071;SDS011;51663;52.310;17.016;2023-02-01T18:32:00;7.97;;;5.70;;
65071;SDS011;51663;52.310;17.016;2023-02-01T18:35:22;9.53;;;5.90;;
65071;SDS011;51663;52.310;17.016;2023-02-01T18:38:27;6.93;;;4.73;;
65071;SDS011;51663;52.310;17.016;2023-02-01T18:41:30;9.60;;;5.50;;
65071;SDS011;51663;52.310;17.016;2023-02-01T18:44:32;14.97;;;9.40;;
65071;SDS011;51663;52.310;17.016;2023-02-01T18:47:34;11.13;;;6.50;;
65071;SDS011;51663;52.310;17.016;2023-02-01T18:50:40;15.03;;;8.97;;
65071;SDS011;51663;52.310;17.016;2023-02-01T18:53:45;15.53;;;8.63;;
65071;SDS011;51663;52.310;17.016;2023-02-01T18:56:47;11.57;;;6.93;;
65071;SDS011;51663;52.310;17.016;2023-02-01T18:59:51;10.70;;;6.77;;
65071;SDS011;51663;52.310;17.016;2023-02-01T19:02:53;22.13;;;14.60;;
65071;SDS011;51663;52.310;17.016;2023-02-01T19:05:56;12.57;;;7.40;;
65071;SDS011;51663;52.310;17.016;2023-02-01T19:08:58;19.30;;;12.00;;
65071;SDS011;51663;52.310;17.016;2023-02-01T19:12:01;11.03;;;6.10;;
65071;SDS011;51663;52.310;17.016;2023-02-01T19:15:04;6.87;;;4.50;;
65071;SDS011;51663;52.310;17.016;2023-02-01T19:18:09;11.50;;;8.50;;
65071;SDS011;51663;52.310;17.016;2023-02-01T19:21:12;9.30;;;7.13;;
65071;SDS011;51663;52.310;17.016;2023-02-01T19:24:14;8.60;;;6.67;;
65071;SDS011;51663;52.310;17.016;2023-02-01T19:27:17;9.47;;;8.60;;
65071;SDS011;51663;52.310;17.016;2023-02-01T19:30:21;8.63;;;6.53;;
65071;SDS011;51663;52.310;17.016;2023-02-01T19:33:26;5.13;;;4.17;;
65071;SDS011;51663;52.310;17.016;2023-02-01T19:36:29;6.13;;;4.87;;
65071;SDS011;51663;52.310;17.016;2023-02-01T19:39:31;9.13;;;7.27;;
65071;SDS011;51663;52.310;17.016;2023-02-01T19:42:33;16.03;;;11.90;;
65071;SDS011;51663;52.310;17.016;2023-02-01T19:45:35;8.10;;;5.80;;
65071;SDS011;51663;52.310;17.016;2023-02-01T19:48:39;7.73;;;5.73;;
65071;SDS011;51663;52.310;17.016;2023-02-01T19:51:43;6.17;;;5.53;;
65071;SDS011;51663;52.310;17.016;2023-02-01T19:54:45;8.67;;;5.57;;
65071;SDS011;51663;52.310;17.016;2023-02-01T19:57:47;5.57;;;4.47;;
65071;SDS011;51663;52.310;17.016;2023-02-01T20:00:55;6.57;;;4.53;;
65071;SDS011;51663;52.310;17.016;2023-02-01T20:04:10;7.40;;;5.23;;
65071;SDS011;51663;52.310;17.016;2023-02-01T20:07:14;4.50;;;4.10;;
65071;SDS011;51663;52.310;17.016;2023-02-01T20:10:16;6.03;;;4.60;;
65071;SDS011;51663;52.310;17.016;2023-02-01T20:13:19;4.60;;;3.77;;
65071;SDS011;51663;52.310;17.016;2023-02-01T20:16:22;4.53;;;3.90;;
65071;SDS011;51663;52.310;17.016;2023-02-01T20:19:27;4.47;;;3.30;;
65071;SDS011;51663;52.310;17.016;2023-02-01T20:22:33;4.63;;;3.90;;
65071;SDS011;51663;52.310;17.016;2023-02-01T20:25:36;3.40;;;2.90;;
65071;SDS011;51663;52.310;17.016;2023-02-01T20:28:39;3.80;;;2.77;;
65071;SDS011;51663;52.310;17.016;2023-02-01T20:31:42;3.33;;;2.63;;
65071;SDS011;51663;52.310;17.016;2023-02-01T20:34:46;5.57;;;3.23;;
65071;SDS011;51663;52.310;17.016;2023-02-01T20:37:51;3.47;;;2.77;;
65071;SDS011;51663;52.310;17.016;2023-02-01T20:41:02;3.70;;;2.80;;
65071;SDS011;51663;52.310;17.016;2023-02-01T20:44:09;4.57;;;2.93;;